createdAt,value
2023-09-19T00:00:59.394Z,15.97
2023-09-19T00:01:59.424Z,15.98
2023-09-19T00:02:59.374Z,15.94
2023-09-19T00:03:59.323Z,16.00
2023-09-19T00:04:59.289Z,15.95
2023-09-19T00:05:59.312Z,15.95
2023-09-19T00:06:59.310Z,16.08
2023-09-19T00:07:59.276Z,15.97
2023-09-19T00:08:59.249Z,16.01
2023-09-19T00:09:59.249Z,16.02
2023-09-19T00:10:59.234Z,16.04
2023-09-19T00:11:59.209Z,16.08
2023-09-19T00:12:59.186Z,16.09
2023-09-19T00:13:59.230Z,16.10
2023-09-19T00:14:59.192Z,16.09
2023-09-19T00:15:59.174Z,16.08
2023-09-19T00:16:59.209Z,15.98
2023-09-19T00:17:59.266Z,16.08
2023-09-19T00:18:59.148Z,16.02
2023-09-19T00:19:59.147Z,15.95
2023-09-19T00:20:59.170Z,16.04
2023-09-19T00:21:59.099Z,16.01
2023-09-19T00:22:59.108Z,16.08
2023-09-19T00:23:59.104Z,16.04
2023-09-19T00:24:59.060Z,15.95
2023-09-19T00:25:59.071Z,15.97
2023-09-19T00:26:59.052Z,16.00
2023-09-19T00:27:59.033Z,16.05
2023-09-19T00:28:59.016Z,15.98
2023-09-19T00:29:59.012Z,15.97
2023-09-19T00:30:59.033Z,15.94
2023-09-19T00:31:59.029Z,16.01
2023-09-19T00:32:59.028Z,16.10
2023-09-19T00:33:58.990Z,15.98
2023-09-19T00:34:58.955Z,16.00
2023-09-19T00:35:58.948Z,16.09
2023-09-19T00:36:58.926Z,16.09
2023-09-19T00:37:58.962Z,16.00
2023-09-19T00:38:59.025Z,16.09
2023-09-19T00:39:58.908Z,16.01
2023-09-19T00:41:00.539Z,16.02
2023-09-19T00:41:58.905Z,15.98
2023-09-19T00:42:58.870Z,16.01
2023-09-19T00:43:58.855Z,16.04
2023-09-19T00:44:58.848Z,16.04
2023-09-19T00:45:58.962Z,16.04
2023-09-19T00:46:59.014Z,16.04
2023-09-19T00:47:59.042Z,15.90
2023-09-19T00:48:58.798Z,16.08
2023-09-19T00:49:58.826Z,16.08
2023-09-19T00:50:58.793Z,15.95
2023-09-19T00:51:58.785Z,15.98
2023-09-19T00:52:58.809Z,15.95
2023-09-19T00:53:58.751Z,15.92
2023-09-19T00:54:58.742Z,16.01
2023-09-19T00:55:58.734Z,15.97
2023-09-19T00:56:58.713Z,15.97
2023-09-19T00:57:58.714Z,15.94
2023-09-19T00:58:58.728Z,15.98
2023-09-19T00:59:58.697Z,15.98
2023-09-19T01:00:58.683Z,16.00
2023-09-19T01:01:58.759Z,16.02
2023-09-19T01:02:58.881Z,16.01
2023-09-19T01:03:58.718Z,15.98
2023-09-19T01:04:58.684Z,15.95
2023-09-19T01:05:58.654Z,15.98
2023-09-19T01:06:58.608Z,15.94
2023-09-19T01:07:58.591Z,15.98
2023-09-19T01:08:58.602Z,15.94
2023-09-19T01:09:58.576Z,15.94
2023-09-19T01:10:58.568Z,15.94
2023-09-19T01:11:58.550Z,15.91
2023-09-19T01:12:58.546Z,15.90
2023-09-19T01:13:58.600Z,15.79
2023-09-19T01:14:58.521Z,15.84
2023-09-19T01:15:58.565Z,15.91
2023-09-19T01:16:58.615Z,15.91
2023-09-19T01:17:58.517Z,15.84
2023-09-19T01:18:58.515Z,15.88
2023-09-19T01:19:58.468Z,15.88
2023-09-19T01:20:58.454Z,15.88
2023-09-19T01:21:58.468Z,15.91
2023-09-19T01:22:58.479Z,15.83
2023-09-19T01:23:58.426Z,15.88
2023-09-19T01:24:58.485Z,15.91
2023-09-19T01:25:58.488Z,15.77
2023-09-19T01:26:58.425Z,15.79
2023-09-19T01:27:58.462Z,15.72
2023-09-19T01:28:58.388Z,15.86
2023-09-19T01:29:58.369Z,15.68
2023-09-19T01:30:58.420Z,15.73
2023-09-19T01:31:58.548Z,15.76
2023-09-19T01:32:58.346Z,15.73
2023-09-19T01:33:58.333Z,15.64
2023-09-19T01:34:58.305Z,15.65
2023-09-19T01:35:58.338Z,15.65
2023-09-19T01:36:58.309Z,15.58
2023-09-19T01:37:58.307Z,15.57
2023-09-19T01:38:58.257Z,15.62
2023-09-19T01:39:58.285Z,15.55
2023-09-19T01:40:58.244Z,15.57
2023-09-19T01:41:58.224Z,15.55
2023-09-19T01:42:58.224Z,15.55
2023-09-19T01:43:58.242Z,15.57
2023-09-19T01:44:58.253Z,15.47
2023-09-19T01:45:58.213Z,15.54
2023-09-19T01:46:58.197Z,15.51
2023-09-19T01:47:58.202Z,15.52
2023-09-19T01:48:58.178Z,15.61
2023-09-19T01:49:58.148Z,15.52
2023-09-19T01:50:58.143Z,15.44
2023-09-19T01:51:58.117Z,15.43
2023-09-19T01:52:58.106Z,15.49
2023-09-19T01:53:58.221Z,15.44
2023-09-19T01:54:58.086Z,15.42
2023-09-19T01:55:58.085Z,15.47
2023-09-19T01:56:58.071Z,15.47
2023-09-19T01:57:58.058Z,15.49
2023-09-19T01:58:58.046Z,15.51
2023-09-19T01:59:58.026Z,15.44
2023-09-19T02:00:58.108Z,15.40
2023-09-19T02:01:58.118Z,15.44
2023-09-19T02:02:58.038Z,15.42
2023-09-19T02:03:58.173Z,15.43
2023-09-19T02:04:57.988Z,15.43
2023-09-19T02:05:58.080Z,15.40
2023-09-19T02:06:57.966Z,15.40
2023-09-19T02:07:57.952Z,15.46
2023-09-19T02:08:57.938Z,15.39
2023-09-19T02:09:57.938Z,15.40
2023-09-19T02:10:57.907Z,15.44
2023-09-19T02:11:57.930Z,15.39
2023-09-19T02:12:57.927Z,15.40
2023-09-19T02:13:57.913Z,15.43
2023-09-19T02:14:57.881Z,15.39
2023-09-19T02:15:57.952Z,15.37
2023-09-19T02:16:57.945Z,15.37
2023-09-19T02:17:57.914Z,15.39
2023-09-19T02:18:57.868Z,15.40
2023-09-19T02:19:57.815Z,15.39
2023-09-19T02:20:57.796Z,15.40
2023-09-19T02:21:57.802Z,15.40
2023-09-19T02:22:57.786Z,15.39
2023-09-19T02:23:57.770Z,15.39
2023-09-19T02:24:57.791Z,15.36
2023-09-19T02:25:57.765Z,15.33
2023-09-19T02:26:57.740Z,15.36
2023-09-19T02:27:57.742Z,15.29
2023-09-19T02:28:57.725Z,15.17
2023-09-19T02:29:57.720Z,15.31
2023-09-19T02:30:57.739Z,15.22
2023-09-19T02:31:57.766Z,15.24
2023-09-19T02:32:57.747Z,15.25
2023-09-19T02:33:57.664Z,15.15
2023-09-19T02:34:57.643Z,15.17
2023-09-19T02:35:57.640Z,15.21
2023-09-19T02:36:57.633Z,15.21
2023-09-19T02:37:57.615Z,15.19
2023-09-19T02:38:57.671Z,15.22
2023-09-19T02:39:57.585Z,15.17
2023-09-19T02:40:57.582Z,15.24
2023-09-19T02:41:57.589Z,15.24
2023-09-19T02:42:57.554Z,15.18
2023-09-19T02:43:57.585Z,15.21
2023-09-19T02:44:57.590Z,15.09
2023-09-19T02:45:57.546Z,15.10
2023-09-19T02:46:57.581Z,15.18
2023-09-19T02:47:57.522Z,15.15
2023-09-19T02:48:57.529Z,15.14
2023-09-19T02:49:57.483Z,15.22
2023-09-19T02:50:57.501Z,15.11
2023-09-19T02:51:57.461Z,15.02
2023-09-19T02:52:57.452Z,15.11
2023-09-19T02:53:57.464Z,15.09
2023-09-19T02:54:57.430Z,15.00
2023-09-19T02:55:57.423Z,15.06
2023-09-19T02:56:57.422Z,14.99
2023-09-19T02:57:57.426Z,15.03
2023-09-19T02:58:57.444Z,15.03
2023-09-19T02:59:57.387Z,14.92
2023-09-19T03:00:57.395Z,15.00
2023-09-19T03:01:57.493Z,15.00
2023-09-19T03:02:57.649Z,14.89
2023-09-19T03:03:57.338Z,14.88
2023-09-19T03:04:57.411Z,14.88
2023-09-19T03:05:57.326Z,14.82
2023-09-19T03:06:57.299Z,14.82
2023-09-19T03:07:57.290Z,14.91
2023-09-19T03:08:57.283Z,14.86
2023-09-19T03:09:57.307Z,14.81
2023-09-19T03:10:57.255Z,14.84
2023-09-19T03:11:57.253Z,14.84
2023-09-19T03:12:57.243Z,14.79
2023-09-19T03:13:57.271Z,14.82
2023-09-19T03:14:57.257Z,14.82
2023-09-19T03:15:57.308Z,14.78
2023-09-19T03:16:57.225Z,14.78
2023-09-19T03:17:57.270Z,14.81
2023-09-19T03:18:57.172Z,14.77
2023-09-19T03:19:57.161Z,14.77
2023-09-19T03:20:57.251Z,14.69
2023-09-19T03:21:57.160Z,14.66
2023-09-19T03:22:57.139Z,14.70
2023-09-19T03:23:57.126Z,14.72
2023-09-19T03:24:57.125Z,14.66
2023-09-19T03:25:57.163Z,14.72
2023-09-19T03:26:57.117Z,14.70
2023-09-19T03:27:57.087Z,14.68
2023-09-19T03:28:57.079Z,14.72
2023-09-19T03:29:57.080Z,14.68
2023-09-19T03:30:57.097Z,14.68
2023-09-19T03:31:57.036Z,14.60
2023-09-19T03:32:57.060Z,14.66
2023-09-19T03:33:57.022Z,14.54
2023-09-19T03:34:57.002Z,14.58
2023-09-19T03:35:56.998Z,14.58
2023-09-19T03:36:57.019Z,14.53
2023-09-19T03:37:56.998Z,14.58
2023-09-19T03:38:56.999Z,14.72
2023-09-19T03:39:56.962Z,14.68
2023-09-19T03:40:57.023Z,14.73
2023-09-19T03:41:56.947Z,14.72
2023-09-19T03:42:56.918Z,14.69
2023-09-19T03:43:57.020Z,14.69
2023-09-19T03:44:56.916Z,14.72
2023-09-19T03:45:56.918Z,14.73
2023-09-19T03:46:57.031Z,14.81
2023-09-19T03:47:56.916Z,14.66
2023-09-19T03:48:56.896Z,14.62
2023-09-19T03:49:56.848Z,14.63
2023-09-19T03:50:56.835Z,14.65
2023-09-19T03:51:56.834Z,14.53
2023-09-19T03:52:56.857Z,14.60
2023-09-19T03:53:56.812Z,14.66
2023-09-19T03:54:56.791Z,14.62
2023-09-19T03:55:56.800Z,14.63
2023-09-19T03:56:56.809Z,14.69
2023-09-19T03:57:56.788Z,14.59
2023-09-19T03:58:56.772Z,14.53
2023-09-19T03:59:56.746Z,14.50
2023-09-19T04:00:56.842Z,14.50
2023-09-19T04:01:56.766Z,14.51
2023-09-19T04:02:56.810Z,14.51
2023-09-19T04:03:56.773Z,14.54
2023-09-19T04:04:56.695Z,14.48
2023-09-19T04:05:56.718Z,14.54
2023-09-19T04:06:56.674Z,14.45
2023-09-19T04:07:56.679Z,14.51
2023-09-19T04:08:56.659Z,14.48
2023-09-19T04:09:56.635Z,14.54
2023-09-19T04:10:56.627Z,14.54
2023-09-19T04:11:56.621Z,14.48
2023-09-19T04:12:56.645Z,14.48
2023-09-19T04:13:56.618Z,14.51
2023-09-19T04:14:56.591Z,14.48
2023-09-19T04:15:56.573Z,14.43
2023-09-19T04:16:56.677Z,14.41
2023-09-19T04:17:56.638Z,14.41
2023-09-19T04:18:56.543Z,14.41
2023-09-19T04:19:56.705Z,14.37
2023-09-19T04:20:56.522Z,14.41
2023-09-19T04:21:56.512Z,14.48
2023-09-19T04:22:56.520Z,14.48
2023-09-19T04:23:56.540Z,14.43
2023-09-19T04:24:56.515Z,14.44
2023-09-19T04:25:56.502Z,14.37
2023-09-19T04:26:56.454Z,14.43
2023-09-19T04:27:56.444Z,14.43
2023-09-19T04:28:56.446Z,14.41
2023-09-19T04:29:56.420Z,14.37
2023-09-19T04:30:56.575Z,14.40
2023-09-19T04:31:56.416Z,14.44
2023-09-19T04:32:56.507Z,14.45
2023-09-19T04:33:56.473Z,14.47
2023-09-19T04:34:56.450Z,14.29
2023-09-19T04:35:57.865Z,14.35
2023-09-19T04:36:56.353Z,14.33
2023-09-19T04:37:56.348Z,14.35
2023-09-19T04:38:56.345Z,14.30
2023-09-19T04:39:56.326Z,14.29
2023-09-19T04:40:56.408Z,14.28
2023-09-19T04:41:56.369Z,14.30
2023-09-19T04:42:56.297Z,14.22
2023-09-19T04:43:56.357Z,14.26
2023-09-19T04:44:56.257Z,14.29
2023-09-19T04:45:56.286Z,14.32
2023-09-19T04:46:56.364Z,14.17
2023-09-19T04:47:56.321Z,14.26
2023-09-19T04:48:56.222Z,14.12
2023-09-19T04:49:56.258Z,14.18
2023-09-19T04:50:56.197Z,14.10
2023-09-19T04:51:56.207Z,14.11
2023-09-19T04:52:56.195Z,14.14
2023-09-19T04:53:56.202Z,14.14
2023-09-19T04:54:56.153Z,14.11
2023-09-19T04:55:56.164Z,14.14
2023-09-19T04:56:56.137Z,14.14
2023-09-19T04:57:56.136Z,14.12
2023-09-19T04:58:56.174Z,13.95
2023-09-19T04:59:56.108Z,14.08
2023-09-19T05:00:56.085Z,14.07
2023-09-19T05:01:56.112Z,13.96
2023-09-19T05:02:56.207Z,13.97
2023-09-19T05:03:56.055Z,13.97
2023-09-19T05:04:56.088Z,13.99
2023-09-19T05:05:56.066Z,13.90
2023-09-19T05:06:56.030Z,13.96
2023-09-19T05:07:56.049Z,13.90
2023-09-19T05:08:56.050Z,13.89
2023-09-19T05:09:56.013Z,13.83
2023-09-19T05:10:56.002Z,13.95
2023-09-19T05:11:55.990Z,13.96
2023-09-19T05:12:55.982Z,13.87
2023-09-19T05:13:56.023Z,13.81
2023-09-19T05:14:55.961Z,13.87
2023-09-19T05:15:56.132Z,13.86
2023-09-19T05:16:56.015Z,13.85
2023-09-19T05:17:57.960Z,13.83
2023-09-19T05:18:55.912Z,13.75
2023-09-19T05:19:55.984Z,13.72
2023-09-19T05:20:55.894Z,13.72
2023-09-19T05:21:55.865Z,13.77
2023-09-19T05:22:55.970Z,13.83
2023-09-19T05:23:55.878Z,13.90
2023-09-19T05:24:55.863Z,13.75
2023-09-19T05:25:55.847Z,13.85
2023-09-19T05:26:55.859Z,13.85
2023-09-19T05:27:55.823Z,13.77
2023-09-19T05:28:55.825Z,13.78
2023-09-19T05:29:55.779Z,13.75
2023-09-19T05:30:55.778Z,13.71
2023-09-19T05:31:55.848Z,13.74
2023-09-19T05:32:55.829Z,13.75
2023-09-19T05:33:55.802Z,13.72
2023-09-19T05:34:55.793Z,13.71
2023-09-19T05:35:55.747Z,13.71
2023-09-19T05:36:55.709Z,13.81
2023-09-19T05:37:55.761Z,13.68
2023-09-19T05:38:55.704Z,13.77
2023-09-19T05:39:55.671Z,13.70
2023-09-19T05:40:55.903Z,13.74
2023-09-19T05:41:55.649Z,13.65
2023-09-19T05:42:55.642Z,13.70
2023-09-19T05:43:55.759Z,13.77
2023-09-19T05:44:55.658Z,13.68
2023-09-19T05:45:55.613Z,13.74
2023-09-19T05:46:55.635Z,13.83
2023-09-19T05:47:55.622Z,13.72
2023-09-19T05:48:55.590Z,13.74
2023-09-19T05:49:55.664Z,13.81
2023-09-19T05:50:55.613Z,13.85
2023-09-19T05:51:55.538Z,13.85
2023-09-19T05:52:55.595Z,13.83
2023-09-19T05:53:55.530Z,13.77
2023-09-19T05:54:55.507Z,13.83
2023-09-19T05:55:55.587Z,13.85
2023-09-19T05:56:55.542Z,13.86
2023-09-19T05:57:55.482Z,13.83
2023-09-19T05:58:55.531Z,13.87
2023-09-19T05:59:55.465Z,13.87
2023-09-19T06:00:55.463Z,13.87
2023-09-19T06:01:55.525Z,13.86
2023-09-19T06:02:55.498Z,13.89
2023-09-19T06:03:55.457Z,13.85
2023-09-19T06:04:55.469Z,13.85
2023-09-19T06:05:55.394Z,13.85
2023-09-19T06:06:55.392Z,13.87
2023-09-19T06:07:55.502Z,13.97
2023-09-19T06:08:55.395Z,13.87
2023-09-19T06:09:55.370Z,13.90
2023-09-19T06:10:55.451Z,13.97
2023-09-19T06:11:55.376Z,14.00
2023-09-19T06:12:55.330Z,13.87
2023-09-19T06:13:55.351Z,13.92
2023-09-19T06:14:55.298Z,13.96
2023-09-19T06:15:55.322Z,13.95
2023-09-19T06:16:55.450Z,13.95
2023-09-19T06:17:55.371Z,14.03
2023-09-19T06:18:55.269Z,13.99
2023-09-19T06:19:55.317Z,13.99
2023-09-19T06:20:55.229Z,14.03
2023-09-19T06:21:55.216Z,14.05
2023-09-19T06:22:55.439Z,14.05
2023-09-19T06:23:55.198Z,14.04
2023-09-19T06:24:55.202Z,14.10
2023-09-19T06:25:55.200Z,14.17
2023-09-19T06:26:55.158Z,14.10
2023-09-19T06:27:55.336Z,14.07
2023-09-19T06:28:55.195Z,14.08
2023-09-19T06:29:55.130Z,14.25
2023-09-19T06:30:55.114Z,14.15
2023-09-19T06:31:55.219Z,14.18
2023-09-19T06:32:55.188Z,14.32
2023-09-19T06:33:55.102Z,14.25
2023-09-19T06:34:55.119Z,14.28
2023-09-19T06:35:55.076Z,14.33
2023-09-19T06:36:55.052Z,14.37
2023-09-19T06:37:55.147Z,14.45
2023-09-19T06:38:55.033Z,14.50
2023-09-19T06:39:55.026Z,14.48
2023-09-19T06:40:55.059Z,14.48
2023-09-19T06:41:55.030Z,14.53
2023-09-19T06:42:55.013Z,14.53
2023-09-19T06:43:55.053Z,14.58
2023-09-19T06:44:55.065Z,14.63
2023-09-19T06:45:54.991Z,14.65
2023-09-19T06:46:54.976Z,14.59
2023-09-19T06:47:54.976Z,14.66
2023-09-19T06:48:54.933Z,14.59
2023-09-19T06:49:55.045Z,14.65
2023-09-19T06:50:54.911Z,14.55
2023-09-19T06:51:54.929Z,14.60
2023-09-19T06:52:54.969Z,14.62
2023-09-19T06:53:54.873Z,14.60
2023-09-19T06:54:54.862Z,14.68
2023-09-19T06:55:54.964Z,14.66
2023-09-19T06:56:54.888Z,14.58
2023-09-19T06:57:54.849Z,14.66
2023-09-19T06:58:54.866Z,14.65
2023-09-19T06:59:54.810Z,14.63
2023-09-19T07:00:54.837Z,14.66
2023-09-19T07:01:54.883Z,14.55
2023-09-19T07:02:54.863Z,14.60
2023-09-19T07:03:54.787Z,14.62
2023-09-19T07:04:54.780Z,14.55
2023-09-19T07:05:54.745Z,14.50
2023-09-19T07:06:54.748Z,14.51
2023-09-19T07:07:54.763Z,14.53
2023-09-19T07:08:54.832Z,14.51
2023-09-19T07:09:54.731Z,14.53
2023-09-19T07:10:54.725Z,14.60
2023-09-19T07:11:54.691Z,14.50
2023-09-19T07:12:54.701Z,14.60
2023-09-19T07:13:54.739Z,14.48
2023-09-19T07:14:54.656Z,14.53
2023-09-19T07:15:54.706Z,14.59
2023-09-19T07:16:54.716Z,14.66
2023-09-19T07:17:54.638Z,14.69
2023-09-19T07:18:54.615Z,14.60
2023-09-19T07:19:54.757Z,14.59
2023-09-19T07:20:54.603Z,14.58
2023-09-19T07:21:54.603Z,14.55
2023-09-19T07:22:54.609Z,14.60
2023-09-19T07:23:54.568Z,14.62
2023-09-19T07:24:54.551Z,14.63
2023-09-19T07:25:54.641Z,14.58
2023-09-19T07:26:54.530Z,14.58
2023-09-19T07:27:54.509Z,14.60
2023-09-19T07:28:54.516Z,14.69
2023-09-19T07:29:55.338Z,14.68
2023-09-19T07:30:54.511Z,14.66
2023-09-19T07:31:54.576Z,14.86
2023-09-19T07:32:54.511Z,14.81
2023-09-19T07:33:54.450Z,14.84
2023-09-19T07:34:54.485Z,14.81
2023-09-19T07:35:54.427Z,14.82
2023-09-19T07:36:54.459Z,14.94
2023-09-19T07:37:54.614Z,14.99
2023-09-19T07:38:54.406Z,15.02
2023-09-19T07:39:54.428Z,15.03
2023-09-19T07:40:54.429Z,14.99
2023-09-19T07:41:54.371Z,15.00
2023-09-19T07:42:54.364Z,15.10
2023-09-19T07:43:54.479Z,15.09
2023-09-19T07:44:54.342Z,15.22
2023-09-19T07:45:54.413Z,15.19
2023-09-19T07:46:54.413Z,15.21
2023-09-19T07:47:54.393Z,15.27
2023-09-19T07:48:54.320Z,15.24
2023-09-19T07:49:54.358Z,15.28
2023-09-19T07:50:54.305Z,15.36
2023-09-19T07:51:54.262Z,15.31
2023-09-19T07:52:54.318Z,15.31
2023-09-19T07:53:54.246Z,15.37
2023-09-19T07:54:54.249Z,15.47
2023-09-19T07:55:54.274Z,15.40
2023-09-19T07:56:54.265Z,15.40
2023-09-19T07:57:54.238Z,15.44
2023-09-19T07:58:54.293Z,15.44
2023-09-19T07:59:54.178Z,15.49
2023-09-19T08:00:54.202Z,15.47
2023-09-19T08:01:54.194Z,15.42
2023-09-19T08:02:58.237Z,15.47
2023-09-19T08:03:55.206Z,15.47
2023-09-19T08:04:54.593Z,15.46
2023-09-19T08:05:54.113Z,15.51
2023-09-19T08:06:54.104Z,15.47
2023-09-19T08:07:54.105Z,15.43
2023-09-19T08:08:54.091Z,15.47
2023-09-19T08:09:54.092Z,15.54
2023-09-19T08:10:54.087Z,15.46
2023-09-19T08:11:54.043Z,15.51
2023-09-19T08:12:54.036Z,15.52
2023-09-19T08:13:54.125Z,15.51
2023-09-19T08:14:54.031Z,15.52
2023-09-19T08:15:54.147Z,15.54
2023-09-19T08:16:54.184Z,15.55
2023-09-19T08:17:54.058Z,15.59
2023-09-19T08:18:53.985Z,15.61
2023-09-19T08:19:54.184Z,15.59
2023-09-19T08:20:54.020Z,15.64
2023-09-19T08:21:54.010Z,15.61
2023-09-19T08:22:54.195Z,15.64
2023-09-19T08:23:53.925Z,15.59
2023-09-19T08:24:53.898Z,15.64
2023-09-19T08:25:53.906Z,15.70
2023-09-19T08:26:53.930Z,15.67
2023-09-19T08:27:53.925Z,15.72
2023-09-19T08:28:53.906Z,15.72
2023-09-19T08:29:53.850Z,15.72
2023-09-19T08:30:53.879Z,15.77
2023-09-19T08:31:53.988Z,15.84
2023-09-19T08:32:53.840Z,15.88
2023-09-19T08:33:53.883Z,15.90
2023-09-19T08:34:53.813Z,15.97
2023-09-19T08:35:53.806Z,15.95
2023-09-19T08:36:53.821Z,15.98
2023-09-19T08:37:53.819Z,16.01
2023-09-19T08:38:53.777Z,16.00
2023-09-19T08:39:53.798Z,16.05
2023-09-19T08:40:53.819Z,16.08
2023-09-19T08:41:53.824Z,16.02
2023-09-19T08:42:53.711Z,16.05
2023-09-19T08:43:53.727Z,16.15
2023-09-19T08:44:53.689Z,16.13
2023-09-19T08:45:53.673Z,16.16
2023-09-19T08:46:53.749Z,16.16
2023-09-19T08:47:53.686Z,16.17
2023-09-19T08:48:53.640Z,16.20
2023-09-19T08:49:53.641Z,16.23
2023-09-19T08:50:53.624Z,16.23
2023-09-19T08:51:53.631Z,16.13
2023-09-19T08:52:53.716Z,16.23
2023-09-19T08:53:53.585Z,16.23
2023-09-19T08:54:53.589Z,16.23
2023-09-19T08:55:53.659Z,16.31
2023-09-19T08:56:53.560Z,16.35
2023-09-19T08:57:53.565Z,16.28
2023-09-19T08:58:53.615Z,16.31
2023-09-19T08:59:53.537Z,16.28
2023-09-19T09:00:53.553Z,16.33
2023-09-19T09:01:53.599Z,16.24
2023-09-19T09:02:53.534Z,16.32
2023-09-19T09:03:53.497Z,16.39
2023-09-19T09:04:53.492Z,16.36
2023-09-19T09:05:53.494Z,16.42
2023-09-19T09:06:53.485Z,16.42
2023-09-19T09:07:53.564Z,16.47
2023-09-19T09:08:53.457Z,16.47
2023-09-19T09:09:53.421Z,16.49
2023-09-19T09:10:53.519Z,16.51
2023-09-19T09:11:53.395Z,16.50
2023-09-19T09:12:53.442Z,16.60
2023-09-19T09:13:53.433Z,16.58
2023-09-19T09:14:53.360Z,16.57
2023-09-19T09:15:53.354Z,16.57
2023-09-19T09:16:53.377Z,16.60
2023-09-19T09:17:53.400Z,16.68
2023-09-19T09:18:53.417Z,16.61
2023-09-19T09:19:53.354Z,16.64
2023-09-19T09:20:53.313Z,16.68
2023-09-19T09:21:53.297Z,16.71
2023-09-19T09:22:53.364Z,16.72
2023-09-19T09:23:53.272Z,16.69
2023-09-19T09:24:53.598Z,16.74
2023-09-19T09:25:53.327Z,16.69
2023-09-19T09:26:53.231Z,16.64
2023-09-19T09:27:53.220Z,16.75
2023-09-19T09:28:53.242Z,16.74
2023-09-19T09:29:53.240Z,16.78
2023-09-19T09:30:53.257Z,16.83
2023-09-19T09:31:53.236Z,16.89
2023-09-19T09:33:11.033Z,16.89
2023-09-19T09:33:54.189Z,16.93
2023-09-19T09:34:53.210Z,17.01
2023-09-19T09:35:53.302Z,17.05
2023-09-19T09:36:53.140Z,17.09
2023-09-19T09:37:53.225Z,17.12
2023-09-19T09:38:53.153Z,17.16
2023-09-19T09:39:53.265Z,17.22
2023-09-19T09:40:53.188Z,17.23
2023-09-19T09:41:53.079Z,17.36
2023-09-19T09:42:53.061Z,17.33
2023-09-19T09:43:53.090Z,17.24
2023-09-19T09:44:53.054Z,17.27
2023-09-19T09:45:53.068Z,17.29
2023-09-19T09:46:53.162Z,17.29
2023-09-19T09:47:53.042Z,17.30
2023-09-19T09:48:53.021Z,17.26
2023-09-19T09:49:53.073Z,17.24
2023-09-19T09:50:52.989Z,17.31
2023-09-19T09:51:52.978Z,17.33
2023-09-19T09:52:53.005Z,17.36
2023-09-19T09:53:52.956Z,17.38
2023-09-19T09:54:52.950Z,17.44
2023-09-19T09:55:53.020Z,17.39
2023-09-19T09:56:52.961Z,17.44
2023-09-19T09:57:52.926Z,17.46
2023-09-19T09:58:52.982Z,17.46
2023-09-19T09:59:52.878Z,17.59
2023-09-19T10:00:52.893Z,17.63
2023-09-19T10:01:52.925Z,17.64
2023-09-19T10:02:53.016Z,17.65
2023-09-19T10:03:53.061Z,17.65
2023-09-19T10:04:53.108Z,17.63
2023-09-19T10:05:52.886Z,17.65
2023-09-19T10:06:52.893Z,17.64
2023-09-19T10:07:52.848Z,17.64
2023-09-19T10:08:52.800Z,17.65
2023-09-19T10:09:52.783Z,17.65
2023-09-19T10:10:52.805Z,17.70
2023-09-19T10:11:52.847Z,17.65
2023-09-19T10:12:52.761Z,17.68
2023-09-19T10:13:52.829Z,17.71
2023-09-19T10:14:52.735Z,17.72
2023-09-19T10:15:53.311Z,17.67
2023-09-19T10:16:52.797Z,17.72
2023-09-19T10:17:52.807Z,17.74
2023-09-19T10:18:52.677Z,17.76
2023-09-19T10:19:52.689Z,17.79
2023-09-19T10:20:52.752Z,17.83
2023-09-19T10:21:52.724Z,17.85
2023-09-19T10:22:52.712Z,17.89
2023-09-19T10:23:52.623Z,17.86
2023-09-19T10:25:01.829Z,17.92
2023-09-19T10:25:53.918Z,17.95
2023-09-19T10:26:52.618Z,17.94
2023-09-19T10:27:52.580Z,17.92
2023-09-19T10:28:52.634Z,17.92
2023-09-19T10:29:52.571Z,17.83
2023-09-19T10:30:52.561Z,17.86
2023-09-19T10:31:52.673Z,17.86
2023-09-19T10:32:52.642Z,17.83
2023-09-19T10:33:52.553Z,17.85
2023-09-19T10:34:52.589Z,17.97
2023-09-19T10:35:52.591Z,17.90
2023-09-19T10:36:52.521Z,17.94
2023-09-19T10:37:52.507Z,18.01
2023-09-19T10:38:52.466Z,17.97
2023-09-19T10:39:52.463Z,18.01
2023-09-19T10:40:52.467Z,18.03
2023-09-19T10:41:52.441Z,18.05
2023-09-19T10:42:52.440Z,18.13
2023-09-19T10:43:52.450Z,18.23
2023-09-19T10:44:52.421Z,18.26
2023-09-19T10:45:52.438Z,18.29
2023-09-19T10:46:52.407Z,18.33
2023-09-19T10:47:52.430Z,18.38
2023-09-19T10:48:52.410Z,18.35
2023-09-19T10:49:52.402Z,18.35
2023-09-19T10:50:52.366Z,18.45
2023-09-19T10:51:52.325Z,18.40
2023-09-19T10:52:52.347Z,18.38
2023-09-19T10:53:52.334Z,18.38
2023-09-19T10:54:52.298Z,18.37
2023-09-19T10:55:52.399Z,18.35
2023-09-19T10:56:52.283Z,18.29
2023-09-19T10:57:52.295Z,18.41
2023-09-19T10:58:52.326Z,18.35
2023-09-19T10:59:52.305Z,18.37
2023-09-19T11:00:52.248Z,18.31
2023-09-19T11:01:52.496Z,18.35
2023-09-19T11:02:52.291Z,18.28
2023-09-19T11:03:52.306Z,18.28
2023-09-19T11:04:52.206Z,18.34
2023-09-19T11:05:52.197Z,18.31
2023-09-19T11:06:52.164Z,18.33
2023-09-19T11:07:52.200Z,18.49
2023-09-19T11:08:52.298Z,18.37
2023-09-19T11:09:52.133Z,18.44
2023-09-19T11:10:52.303Z,18.38
2023-09-19T11:11:52.105Z,18.49
2023-09-19T11:12:52.121Z,18.55
2023-09-19T11:13:52.108Z,18.60
2023-09-19T11:14:52.115Z,18.60
2023-09-19T11:15:52.094Z,18.56
2023-09-19T11:16:52.099Z,18.53
2023-09-19T11:17:52.062Z,18.53
2023-09-19T11:18:52.124Z,18.59
2023-09-19T11:19:52.074Z,18.55
2023-09-19T11:20:52.026Z,18.49
2023-09-19T11:21:52.030Z,18.45
2023-09-19T11:22:52.250Z,18.53
2023-09-19T11:23:51.998Z,18.52
2023-09-19T11:24:51.997Z,18.49
2023-09-19T11:25:52.037Z,18.50
2023-09-19T11:26:51.956Z,18.49
2023-09-19T11:27:51.944Z,18.50
2023-09-19T11:28:51.971Z,18.40
2023-09-19T11:29:51.924Z,18.52
2023-09-19T11:30:51.919Z,18.44
2023-09-19T11:31:51.926Z,18.41
2023-09-19T11:32:52.044Z,18.38
2023-09-19T11:33:51.887Z,18.35
2023-09-19T11:34:52.342Z,18.43
2023-09-19T11:35:51.852Z,18.38
2023-09-19T11:36:51.836Z,18.38
2023-09-19T11:37:51.903Z,18.38
2023-09-19T11:38:51.837Z,18.40
2023-09-19T11:39:51.801Z,18.47
2023-09-19T11:40:51.819Z,18.52
2023-09-19T11:41:51.780Z,18.60
2023-09-19T11:42:51.842Z,18.53
2023-09-19T11:43:53.937Z,18.55
2023-09-19T11:44:51.768Z,18.52
2023-09-19T11:45:51.823Z,18.53
2023-09-19T11:46:51.770Z,18.50
2023-09-19T11:47:51.745Z,18.50
2023-09-19T11:48:51.739Z,18.50
2023-09-19T11:49:51.757Z,18.47
2023-09-19T11:50:51.729Z,18.47
2023-09-19T11:51:51.683Z,18.53
2023-09-19T11:52:51.765Z,18.50
2023-09-19T11:53:51.672Z,18.60
2023-09-19T11:54:51.644Z,18.70
2023-09-19T11:55:51.862Z,18.65
2023-09-19T11:56:51.768Z,18.78
2023-09-19T11:57:51.626Z,18.74
2023-09-19T11:58:51.663Z,18.86
2023-09-19T11:59:51.599Z,18.92
2023-09-19T12:00:51.640Z,18.90
2023-09-19T12:01:51.681Z,18.90
2023-09-19T12:02:51.620Z,18.89
2023-09-19T12:03:51.619Z,18.92
2023-09-19T12:04:51.600Z,18.93
2023-09-19T12:05:51.540Z,18.92
2023-09-19T12:06:51.557Z,18.89
2023-09-19T12:07:51.542Z,18.90
2023-09-19T12:08:51.567Z,18.84
2023-09-19T12:09:51.506Z,19.00
2023-09-19T12:10:51.545Z,18.92
2023-09-19T12:11:51.497Z,19.02
2023-09-19T12:12:51.511Z,18.95
2023-09-19T12:13:51.520Z,18.98
2023-09-19T12:14:51.529Z,18.98
2023-09-19T12:15:51.455Z,19.12
2023-09-19T12:16:51.465Z,19.14
2023-09-19T12:17:51.527Z,19.19
2023-09-19T12:18:51.457Z,19.21
2023-09-19T12:19:51.428Z,19.29
2023-09-19T12:20:51.481Z,19.24
2023-09-19T12:21:51.397Z,19.18
2023-09-19T12:22:51.598Z,19.30
2023-09-19T12:23:51.343Z,19.39
2023-09-19T12:24:51.332Z,19.41
2023-09-19T12:25:51.408Z,19.36
2023-09-19T12:26:51.305Z,19.45
2023-09-19T12:27:51.342Z,19.34
2023-09-19T12:28:51.422Z,19.31
2023-09-19T12:29:51.393Z,19.31
2023-09-19T12:30:51.273Z,19.34
2023-09-19T12:31:51.312Z,19.27
2023-09-19T12:32:51.451Z,19.22
2023-09-19T12:33:51.753Z,19.27
2023-09-19T12:34:51.258Z,19.26
2023-09-19T12:35:51.218Z,19.29
2023-09-19T12:36:51.321Z,19.26
2023-09-19T12:37:51.230Z,19.26
2023-09-19T12:38:51.231Z,19.27
2023-09-19T12:39:51.183Z,19.22
2023-09-19T12:40:51.213Z,19.24
2023-09-19T12:41:51.164Z,19.24
2023-09-19T12:42:51.198Z,19.21
2023-09-19T12:43:51.180Z,19.26
2023-09-19T12:44:51.179Z,19.15
2023-09-19T12:45:51.136Z,19.15
2023-09-19T12:46:51.174Z,19.16
2023-09-19T12:47:51.140Z,19.18
2023-09-19T12:48:51.139Z,19.19
2023-09-19T12:49:51.172Z,19.11
2023-09-19T12:50:51.057Z,19.16
2023-09-19T12:51:51.070Z,19.18
2023-09-19T12:52:51.346Z,19.14